Mora, New Mexico
Current Conditions -  °F | °C
As of 9:53 PM on Friday 26 Dec 2014 (Local Time) from KLVS Reporting Station
Moderate Fog Moderate Fog  
Wind Chill:   Ceiling: 300
Heat Index: 12°   Visibility: 0.5mi
Dew Point:   Wind: 5mph
Humidity: 88%   Direction: 60°ENE
Pressure: 29.99"   Gusts: NA
Location:  35.97°N, 105.33°W
Report Text: KLVS 270453Z AUTO 06004KT 1/2SM FZFG VV003 M11/M13 A2999 RMK AO2 SLP190 T11111128
Loading
Personal Weather Stations






























Interactive Weather Map New forecast layout! Learn more

10-Day Weather Forecast

Advertisements
Track Severe Weather on mobile